AirNav   Air Wisconsin Up To $57,000 Bonus
 
 1018 users online  

ND59 Grieve Airport
Buffalo, North Dakota, USA

GOING TO BUFFALO?


FAA INFORMATION EFFECTIVE 03 NOVEMBER 2022

Location

FAA Identifier: ND59
Lat/Long: 46-59-14.9160N 097-31-46.3310W
46-59.248600N 097-31.772183W
46.9874767,-97.5295364
(estimated)
Elevation: 1208 ft. / 368 m (estimated)
Variation: 07E (1985)
From city: 4 miles NE of BUFFALO, ND
Time zone: UTC -6 (UTC -5 during Daylight Saving Time)
Zip code: 58011

Airport Operations

Airport use: Private use. Permission required prior to landing
Control tower: no
ARTCC: MINNEAPOLIS CENTER
FSS: GRAND FORKS FLIGHT SERVICE STATION
Attendance: CONTINUOUS
Wind indicator: yes
Segmented circle: no

Nearby radio navigation aids

VOR radial/distance  VOR name  Freq  Var
FARr288/31.2FARGO VOR/DME116.2009E

Airport Services

Airframe service: NONE
Powerplant service: NONE

Runway Information

Runway 17/35

Dimensions: 2600 x 50 ft. / 792 x 15 m
Surface: turf
RUNWAY 17  RUNWAY 35
Traffic pattern: leftleft

Airport Ownership and Management from official FAA records

Ownership: Privately-owned
Manager: WM GRIEVE
BUFFALO, ND 58011
Phone 701-633-5515

Airport Operational Statistics

Aircraft based on the field: 3
Single engine airplanes: 3
    

Additional Remarks

FARM BLDGS WITH 2 LARGE SILOS WEST OF FIELD
FOR CD CTC MINNEAPOLIS ARTCC AT 651-463-5588.

Instrument Procedures

There are no published instrument procedures at ND59.

Some nearby airports with instrument procedures:

5N8 - Casselton Robert Miller Regional Airport (15 nm SE)
KBAC - Barnes County Municipal Airport (20 nm W)
3H4 - Hillsboro Municipal Airport (29 nm NE)
KFAR - Hector International Airport (30 nm E)
K74 - Robert Odegaard Field Airport (30 nm SE)
 
Loc | Ops | Rwys | IFR | FBO | Links
Com | Nav | Svcs | Stats | Notes

Bismarck Aero Center
AirBoss

 
Area around ND59 (Grieve Airport)
 
Road maps at: MapQuest Bing Google
 
Aerial photo
No photo
 
Sectional chart

 
Airport distance calculator
Flying to Grieve Airport? Find the distance to fly.

From to ND59

Sunrise and sunset
Times for 26-Nov-2022
 Local
(UTC-6)
 Zulu
(UTC)
Morning civil twilight07:1613:16
Sunrise07:5013:50
Sunset16:4522:45
Evening civil twilight17:1923:19

Current date and time
Zulu (UTC)  26-Nov-2022 16:57:58
Local (UTC-6)  26-Nov-2022 10:57:58
 
METAR
KBAC 
20nm W 
261655Z AUTO 33017KT 10SM CLR 03/01 A2976 RMK AO2
KFAR 
29nm E 
261653Z 32009KT 10SM CLR 04/M01 A2972 RMK AO2 SLP074 T00391006
KS32 
35nm NW 
261655Z AUTO 32013KT 10SM CLR 03/03 A2977 RMK AO2 TSNO
KJKJ 
37nm E 
261655Z AUTO 32010KT 10SM CLR 04/00 A2973 RMK AO2 TSNO
TAF
KFAR 
29nm E 
261124Z 2612/2712 21008KT P6SM SCT250 FM261500 30008KT P6SM SCT250 FM261800 33012G20KT P6SM BKN240 FM270200 32009KT P6SM BKN220
NOTAMs
Click for the latest NOTAMs
NOTAMs are issued by the DoD/FAA and will open in a separate window not controlled by AirNav.

 

 
 

Would you like to see your business listed on this page?

 If your business provides an interesting product or service to pilots, flight crews, aircraft, or users of the Grieve Airport, you should consider listing it here.  To start the listing process, click on the button below
 
Add a business
 

Other Pages about Grieve Airport

Update a link
 
Copyright © AirNav, LLC. All rights reserved. Privacy Policy  Contact